Time,TemperatureF,DewpointF,PressureIn,WindDirection,WindDirectionDegrees,WindSpeedMPH,WindSpeedGustMPH,Humidity,HourlyPrecipIn,Conditions,Clouds,dailyrainin,SoftwareType,DateUTC
2013-04-18 00:13:00,42.5,39.0,30.35,SE,141,0.0,0.0,87,0.00,,,0.00,weatherlink.com 1.10,2013-04-18 04:13:00,
2013-04-18 00:28:00,42.8,39.0,30.36,WSW,243,1.0,1.0,87,0.00,,,0.00,weatherlink.com 1.10,2013-04-18 04:28:00,
2013-04-18 00:43:00,42.4,39.0,30.37,WSW,243,0.0,0.0,88,0.00,,,0.00,weatherlink.com 1.10,2013-04-18 04:43:00,
2013-04-18 00:58:00,42.2,39.0,30.37,WSW,243,0.0,0.0,88,0.00,,,0.00,weatherlink.com 1.10,2013-04-18 04:58:00,
2013-04-18 01:13:00,41.8,39.0,30.37,WSW,243,0.0,0.0,88,0.00,,,0.00,weatherlink.com 1.10,2013-04-18 05:13:00,
2013-04-18 01:28:00,41.7,39.0,30.38,WSW,243,0.0,0.0,89,0.00,,,0.00,weatherlink.com 1.10,2013-04-18 05:28:00,
2013-04-18 01:43:00,41.6,39.0,30.38,WSW,243,0.0,0.0,89,0.00,,,0.00,weatherlink.com 1.10,2013-04-18 05:43:00,
2013-04-18 01:58:00,41.0,38.0,30.37,WSW,243,0.0,0.0,90,0.00,,,0.00,weatherlink.com 1.10,2013-04-18 05:58:00,
2013-04-18 02:13:00,40.7,38.0,30.37,WSW,243,0.0,0.0,90,0.00,,,0.00,weatherlink.com 1.10,2013-04-18 06:13:00,
2013-04-18 02:28:00,40.0,38.0,30.37,WSW,243,0.0,0.0,91,0.00,,,0.00,weatherlink.com 1.10,2013-04-18 06:28:00,
2013-04-18 02:43:00,39.7,38.0,30.37,WSW,243,0.0,1.0,92,0.00,,,0.00,weatherlink.com 1.10,2013-04-18 06:43:00,
2013-04-18 02:58:00,39.3,37.0,30.36,WSW,243,0.0,0.0,92,0.00,,,0.00,weatherlink.com 1.10,2013-04-18 06:58:00,
2013-04-18 03:13:00,38.9,37.0,30.36,WSW,243,0.0,0.0,92,0.00,,,0.00,weatherlink.com 1.10,2013-04-18 07:13:00,
2013-04-18 03:28:00,38.7,37.0,30.37,WSW,243,0.0,0.0,93,0.00,,,0.00,weatherlink.com 1.10,2013-04-18 07:28:00,
2013-04-18 03:43:00,38.7,37.0,30.38,WSW,243,0.0,1.0,93,0.00,,,0.00,weatherlink.com 1.10,2013-04-18 07:43:00,
2013-04-18 03:58:00,38.6,37.0,30.39,WSW,243,0.0,0.0,92,0.00,,,0.00,weatherlink.com 1.10,2013-04-18 07:58:00,
2013-04-18 04:13:00,38.4,37.0,30.40,WSW,243,0.0,1.0,93,0.00,,,0.00,weatherlink.com 1.10,2013-04-18 08:13:00,
2013-04-18 04:28:00,38.3,37.0,30.40,WSW,243,0.0,1.0,93,0.00,,,0.00,weatherlink.com 1.10,2013-04-18 08:28:00,
2013-04-18 04:43:00,38.0,36.0,30.41,WSW,243,0.0,0.0,93,0.00,,,0.00,weatherlink.com 1.10,2013-04-18 08:43:00,
2013-04-18 04:58:00,37.6,36.0,30.41,WSW,243,0.0,0.0,93,0.00,,,0.00,weatherlink.com 1.10,2013-04-18 08:58:00,
2013-04-18 05:13:00,37.0,35.0,30.40,WSW,243,0.0,0.0,93,0.00,,,0.00,weatherlink.com 1.10,2013-04-18 09:13:00,
2013-04-18 05:28:00,37.0,36.0,30.40,WSW,243,0.0,1.0,94,0.00,,,0.00,weatherlink.com 1.10,2013-04-18 09:28:00,
2013-04-18 05:43:00,36.7,35.0,30.41,WSW,243,0.0,1.0,93,0.00,,,0.00,weatherlink.com 1.10,2013-04-18 09:43:00,
2013-04-18 05:59:00,36.7,35.0,30.41,WSW,243,0.0,0.0,94,0.00,,,0.00,weatherlink.com 1.10,2013-04-18 09:59:00,
2013-04-18 06:14:00,36.7,35.0,30.41,WSW,243,0.0,1.0,93,0.00,,,0.00,weatherlink.com 1.10,2013-04-18 10:14:00,
2013-04-18 06:29:00,37.1,35.0,30.41,WSW,243,0.0,1.0,93,0.00,,,0.00,weatherlink.com 1.10,2013-04-18 10:29:00,
2013-04-18 06:44:00,37.8,36.0,30.41,WSW,243,0.0,0.0,93,0.00,,,0.00,weatherlink.com 1.10,2013-04-18 10:44:00,
2013-04-18 06:59:00,39.5,37.0,30.40,WSW,244,0.0,1.0,92,0.00,,,0.00,weatherlink.com 1.10,2013-04-18 10:59:00,
2013-04-18 07:14:00,42.1,39.0,30.41,WSW,244,0.0,1.0,88,0.00,,,0.00,weatherlink.com 1.10,2013-04-18 11:14:00,
2013-04-18 07:29:00,45.7,40.0,30.42,NE,55,0.0,3.0,79,0.00,,,0.00,weatherlink.com 1.10,2013-04-18 11:29:00,
2013-04-18 07:44:00,48.4,39.0,30.42,ESE,118,0.0,3.0,70,0.00,,,0.00,weatherlink.com 1.10,2013-04-18 11:44:00,
2013-04-18 07:59:00,50.4,39.0,30.43,ESE,108,0.0,5.0,64,0.00,,,0.00,weatherlink.com 1.10,2013-04-18 11:59:00,
2013-04-18 08:14:00,51.7,38.0,30.43,ENE,72,3.0,7.0,59,0.00,,,0.00,weatherlink.com 1.10,2013-04-18 12:14:00,
2013-04-18 08:29:00,52.0,37.0,30.42,NE,49,3.0,9.0,56,0.00,,,0.00,weatherlink.com 1.10,2013-04-18 12:29:00,
2013-04-18 08:44:00,52.8,37.0,30.42,SSE,160,4.0,6.0,56,0.00,,,0.00,weatherlink.com 1.10,2013-04-18 12:44:00,
2013-04-18 08:59:00,53.5,37.0,30.43,SE,133,4.0,8.0,54,0.00,,,0.00,weatherlink.com 1.10,2013-04-18 12:59:00,
2013-04-18 09:14:00,54.1,37.0,30.43,SE,135,4.0,8.0,53,0.00,,,0.00,weatherlink.com 1.10,2013-04-18 13:14:00,
2013-04-18 09:29:00,54.4,38.0,30.43,SE,134,2.0,7.0,54,0.00,,,0.00,weatherlink.com 1.10,2013-04-18 13:29:00,
2013-04-18 09:44:00,54.3,38.0,30.42,ENE,58,2.0,9.0,54,0.00,,,0.00,weatherlink.com 1.10,2013-04-18 13:44:00,
2013-04-18 09:59:00,53.7,36.0,30.43,SE,146,4.0,11.0,52,0.00,,,0.00,weatherlink.com 1.10,2013-04-18 13:59:00,
2013-04-18 10:14:00,53.6,38.0,30.42,South,189,8.0,11.0,55,0.00,,,0.00,weatherlink.com 1.10,2013-04-18 14:14:00,
2013-04-18 10:29:00,53.7,39.0,30.42,SE,132,7.0,10.0,58,0.00,,,0.00,weatherlink.com 1.10,2013-04-18 14:29:00,
2013-04-18 10:44:00,53.6,39.0,30.43,SSW,192,6.0,12.0,58,0.00,,,0.00,weatherlink.com 1.10,2013-04-18 14:44:00,
2013-04-18 11:14:00,54.7,40.0,30.43,South,181,5.0,8.0,58,0.00,,,0.00,weatherlink.com 1.10,2013-04-18 15:14:00,
2013-04-18 11:29:00,55.0,41.0,30.42,ESE,116,1.0,7.0,59,0.00,,,0.00,weatherlink.com 1.10,2013-04-18 15:29:00,
2013-04-18 11:44:00,56.3,43.0,30.42,NE,44,4.0,6.0,61,0.00,,,0.00,weatherlink.com 1.10,2013-04-18 15:44:00,
2013-04-18 11:59:00,56.1,42.0,30.42,East,95,2.0,9.0,59,0.00,,,0.00,weatherlink.com 1.10,2013-04-18 15:59:00,
2013-04-18 12:14:00,56.8,42.0,30.41,SE,133,3.0,7.0,59,0.00,,,0.00,weatherlink.com 1.10,2013-04-18 16:14:00,
2013-04-18 12:29:00,56.9,42.0,30.41,South,179,1.0,8.0,58,0.00,,,0.00,weatherlink.com 1.10,2013-04-18 16:29:00,
2013-04-18 12:45:00,56.9,41.0,30.41,SE,131,7.0,8.0,56,0.00,,,0.00,weatherlink.com 1.10,2013-04-18 16:45:00,
2013-04-18 13:00:00,57.2,40.0,30.40,SE,130,3.0,7.0,54,0.00,,,0.00,weatherlink.com 1.10,2013-04-18 17:00:00,
2013-04-18 13:15:00,57.4,40.0,30.39,SSE,147,3.0,6.0,52,0.00,,,0.00,weatherlink.com 1.10,2013-04-18 17:15:00,
2013-04-18 13:30:00,58.3,41.0,30.39,SSE,153,3.0,6.0,52,0.00,,,0.00,weatherlink.com 1.10,2013-04-18 17:30:00,
2013-04-18 13:45:00,58.2,39.0,30.39,SSW,195,4.0,7.0,50,0.00,,,0.00,weatherlink.com 1.10,2013-04-18 17:45:00,
2013-04-18 14:00:00,57.3,39.0,30.38,ESE,116,3.0,7.0,51,0.00,,,0.00,weatherlink.com 1.10,2013-04-18 18:00:00,
2013-04-18 14:15:00,57.1,40.0,30.38,ESE,115,3.0,8.0,54,0.00,,,0.00,weatherlink.com 1.10,2013-04-18 18:15:00,
2013-04-18 14:30:00,56.9,42.0,30.37,SSE,153,2.0,6.0,57,0.00,,,0.00,weatherlink.com 1.10,2013-04-18 18:30:00,
2013-04-18 14:45:00,56.3,41.0,30.37,SE,139,3.0,6.0,56,0.00,,,0.00,weatherlink.com 1.10,2013-04-18 18:45:00,
2013-04-18 15:00:00,55.1,41.0,30.36,SSW,197,1.0,9.0,60,0.00,,,0.00,weatherlink.com 1.10,2013-04-18 19:00:00,
2013-04-18 15:15:00,55.4,40.0,30.36,ESE,120,3.0,7.0,56,0.00,,,0.00,weatherlink.com 1.10,2013-04-18 19:15:00,
2013-04-18 15:30:00,56.0,39.0,30.36,SSE,149,3.0,8.0,54,0.00,,,0.00,weatherlink.com 1.10,2013-04-18 19:30:00,
2013-04-18 15:45:00,56.2,37.0,30.35,SSE,165,3.0,10.0,49,0.00,,,0.00,weatherlink.com 1.10,2013-04-18 19:45:00,
2013-04-18 16:00:00,55.8,37.0,30.34,SSW,195,3.0,11.0,49,0.00,,,0.00,weatherlink.com 1.10,2013-04-18 20:00:00,
2013-04-18 16:15:00,55.3,38.0,30.34,South,178,5.0,9.0,52,0.00,,,0.00,weatherlink.com 1.10,2013-04-18 20:15:00,
2013-04-18 16:30:00,55.3,38.0,30.33,SW,217,3.0,10.0,52,0.00,,,0.00,weatherlink.com 1.10,2013-04-18 20:30:00,
2013-04-18 16:45:00,55.0,38.0,30.33,SSW,200,3.0,8.0,54,0.00,,,0.00,weatherlink.com 1.10,2013-04-18 20:45:00,
2013-04-18 17:00:00,54.3,38.0,30.33,SSE,165,3.0,8.0,54,0.00,,,0.00,weatherlink.com 1.10,2013-04-18 21:00:00,
2013-04-18 17:15:00,54.0,39.0,30.32,South,180,2.0,8.0,57,0.00,,,0.00,weatherlink.com 1.10,2013-04-18 21:15:00,
2013-04-18 17:30:00,53.8,40.0,30.31,WSW,243,2.0,8.0,60,0.00,,,0.00,weatherlink.com 1.10,2013-04-18 21:30:00,
2013-04-18 17:45:00,53.5,41.0,30.31,South,176,4.0,9.0,64,0.00,,,0.00,weatherlink.com 1.10,2013-04-18 21:45:00,
2013-04-18 18:00:00,53.2,42.0,30.31,SE,129,2.0,8.0,66,0.00,,,0.00,weatherlink.com 1.10,2013-04-18 22:00:00,
2013-04-18 18:15:00,52.8,42.0,30.30,SE,126,2.0,7.0,68,0.00,,,0.00,weatherlink.com 1.10,2013-04-18 22:15:00,
2013-04-18 18:30:00,52.4,42.0,30.30,South,176,1.0,10.0,69,0.00,,,0.00,weatherlink.com 1.10,2013-04-18 22:30:00,
2013-04-18 18:45:00,51.5,43.0,30.29,SSE,165,2.0,6.0,72,0.00,,,0.00,weatherlink.com 1.10,2013-04-18 22:45:00,
2013-04-18 19:00:00,51.3,43.0,30.29,SSE,148,1.0,5.0,73,0.00,,,0.00,weatherlink.com 1.10,2013-04-18 23:00:00,
2013-04-18 19:15:00,50.6,43.0,30.29,South,180,3.0,3.0,76,0.00,,,0.00,weatherlink.com 1.10,2013-04-18 23:15:00,
2013-04-18 19:30:00,50.1,43.0,30.28,SE,134,1.0,3.0,77,0.01,,,0.01,weatherlink.com 1.10,2013-04-18 23:30:00,
2013-04-18 19:45:00,49.8,43.0,30.28,ESE,119,1.0,4.0,77,0.01,,,0.01,weatherlink.com 1.10,2013-04-18 23:45:00,
2013-04-18 20:00:00,49.7,43.0,30.28,SSE,149,0.0,4.0,77,0.01,,,0.01,weatherlink.com 1.10,2013-04-19 00:00:00,
2013-04-18 20:16:00,49.7,43.0,30.27,SSE,148,1.0,5.0,77,0.01,,,0.01,weatherlink.com 1.10,2013-04-19 00:16:00,
2013-04-18 20:30:00,49.5,43.0,30.27,SSE,162,1.0,6.0,78,0.00,,,0.01,weatherlink.com 1.10,2013-04-19 00:30:00,
2013-04-18 20:45:00,49.6,43.0,30.28,SSE,155,2.0,4.0,79,0.00,,,0.01,weatherlink.com 1.10,2013-04-19 00:45:00,
2013-04-18 21:00:00,49.8,44.0,30.27,South,169,0.0,6.0,79,0.00,,,0.01,weatherlink.com 1.10,2013-04-19 01:00:00,
2013-04-18 21:15:00,49.7,44.0,30.27,SSE,159,2.0,6.0,81,0.00,,,0.01,weatherlink.com 1.10,2013-04-19 01:15:00,
2013-04-18 21:30:00,49.7,44.0,30.26,SE,129,1.0,4.0,82,0.00,,,0.01,weatherlink.com 1.10,2013-04-19 01:30:00,
2013-04-18 21:45:00,49.9,45.0,30.25,SE,138,1.0,3.0,82,0.00,,,0.01,weatherlink.com 1.10,2013-04-19 01:45:00,
2013-04-18 22:00:00,50.0,45.0,30.25,SSE,158,0.0,5.0,82,0.00,,,0.01,weatherlink.com 1.10,2013-04-19 02:00:00,
2013-04-18 22:15:00,50.0,45.0,30.24,SE,126,1.0,7.0,83,0.00,,,0.01,weatherlink.com 1.10,2013-04-19 02:15:00,
2013-04-18 22:30:00,50.2,45.0,30.23,SSE,150,0.0,4.0,83,0.00,,,0.01,weatherlink.com 1.10,2013-04-19 02:30:00,
2013-04-18 22:45:00,50.3,46.0,30.22,South,169,1.0,7.0,84,0.00,,,0.01,weatherlink.com 1.10,2013-04-19 02:45:00,
2013-04-18 23:00:00,50.4,46.0,30.21,SSE,151,2.0,7.0,85,0.00,,,0.01,weatherlink.com 1.10,2013-04-19 03:00:00,
2013-04-18 23:15:00,50.5,47.0,30.20,SE,146,2.0,5.0,86,0.00,,,0.01,weatherlink.com 1.10,2013-04-19 03:15:00,
2013-04-18 23:30:00,50.5,47.0,30.20,SSE,167,1.0,5.0,87,0.00,,,0.01,weatherlink.com 1.10,2013-04-19 03:30:00,
2013-04-18 23:46:00,50.6,47.0,30.19,SSE,165,0.0,4.0,88,0.00,,,0.01,weatherlink.com 1.10,2013-04-19 03:46:00,